map of CEQ home
CEQ - Airport
Location
City:  Cannes, Provence-Alpes-Côte d'Azur, France
Name:Mandelieu
ICAO:LFMD
IATA:CEQ

Details
Type:Airport (Aerodrome, Airfield)
Use:Public/Civil
Latitude:43°32'47"N (43.546389)
Longitude:6°57'15"E (6.954167)
Elevation:13 ft (4 m)
Variation:1.95°E (WMM2015 magnetic declination)
0.11° annual change
Runways:3
Longest:5282 × 148 ft (1610 × 45 m)

Time
Time Zone:UTC+1 (DST+2)
Local Time:

Weather
METAR:LFMD 172300Z AUTO 01005KT 330V030 CAVOK 07/04 Q1016
TAF:LFMD 171917Z 1719/1815 CNL= TAF
AMD LHBP 171900Z 1719/1818 30006KT 6000 -RA BKN040 OVC060
TEMPO 1718/1724 2500 RA BR
BECMG 1721/1724 VRB03KT BKN020 OVC040
TEMPO 1800/1812 1200 RADZ BR BKN004 OVC010
BECMG 1812/1815 29006KT CAVOK

Related Locations
Nearby:
Farthest:CHT: 12269 mi / 19745 km
Waitangi [Tuuta], CIT, NZ

Find:

   beyond  
but within

Other Information
Maps:
NOTAMs:
Links:
Sources:

  
flag of France
flag of Provence-Alpes-Côte d'Azur
  

Sectional Chart

Flight Planning
at skyvector.com

Satellite Image

Google Maps Satellite view

 

Copyright © 2004-2017 Karl L. Swartz. All rights reserved.
The Great Circle Mapper name and logo are trademarks of the Great Circle Mapper.
All other trademarks mentioned herein belong to their respective owners.
Please see credits for attibutions and further copyright information.

  Follow gcmap on Facebook Follow gcmap on Twitter Follow gcmap on Google+ GCmap on LinkedIn

hCard Microformat

Geo Microformat